Mist van: 23-09-2017 01:00 tot: 09:59 waarschuwing voor: Mist niveau: Geel info button
nederlands:
Deze nacht komt het tot vorming van mist die het zicht kan beperken tot 100 m of minder.

français:
Cette nuit, on prévoit du brouillard qui pourra limiter la visibilité à 100 m ou moins. 

metar rapporten vliegvelden

   
EBAW - Antwerp
gewijzigd: 23-09-2017 01:50
Patches of, mist, helder  
Patches of, mist, helder  
   wind: westen 1,9 km/h
wind: westen 1,9 km/h
temperatuur: 7°C
dauwpunt: 7°C
vochtigheid: 100%
barometer: 1024 hPa
bewolking: helder
zicht: 5 km
bewolking: helder
EBAW 222350Z AUTO 28001KT 4700 R11/1900N R29/0650N BCFG NCD 07/07 Q1024
EBLG - Liège
gewijzigd: 23-09-2017 01:50
nevel, licht bewolkt  
nevel, licht bewolkt  
   wind: varieert 1,9 km/h
wind: varieert 1,9 km/h
temperatuur: 11°C
dauwpunt: 10°C
vochtigheid: 94%
barometer: 1024 hPa
bewolking: licht bewolkt
zicht: 3 km
bewolking: licht bewolkt 3800 ft
EBLG 222350Z VRB01KT 3000 BR FEW038 11/10 Q1024 BECMG 0800 FG
EBCV - Mons/Bergen
gewijzigd: 23-09-2017 01:55
mist, bewolking  
mist, bewolking  
   wind: varieert 1,9 km/h
wind: varieert 1,9 km/h
temperatuur: 8°C
dauwpunt: 8°C
vochtigheid: 100%
barometer: 1024 hPa
bewolking: bewolking
zicht: 0 km
bewolking: bewolking 200 ft
EBCV 222355Z AUTO VRB01KT 0100 FG VV002/// 08/08 Q1024 RED
EHBK - Maastricht
gewijzigd: 23-09-2017 01:55
mist, gedeeltelijk bewolkt  
mist, gedeeltelijk bewolkt  
   wind: varieert 3,7 km/h
wind: varieert 3,7 km/h
temperatuur: 11°C
dauwpunt: 11°C
vochtigheid: 100%
barometer: 1023 hPa
bewolking: gedeeltelijk bewolkt
zicht: 1 km
bewolking: gedeeltelijk bewolkt
EHBK 222355Z AUTO VRB02KT 0800 R21/1800N FG NSC 11/11 Q1023
ELLX - Luxemburg
gewijzigd: 23-09-2017 01:50
grotendeels bewolkt  
grotendeels bewolkt  
   wind: noorden 13 km/h
wind: noorden 13 km/h
temperatuur: 13°C
dauwpunt: 11°C
vochtigheid: 88%
barometer: 1023 hPa
bewolking: grotendeels bewolkt
zicht: meer dan 10 km
bewolking: licht bewolkt 3500 ft,
grotendeels bewolkt 5000 ft
ELLX 222350Z 01007KT 9999 FEW035 BKN050 13/11 Q1023 NOSIG
EBOS - Oostende
gewijzigd: 23-09-2017 01:50
licht bewolkt  
licht bewolkt  
   wind: zuiden 3,7 km/h
wind: zuiden 3,7 km/h
temperatuur: 8°C
dauwpunt: 6°C
vochtigheid: 87%
barometer: 1024 hPa
bewolking: licht bewolkt
zicht: 6 km
bewolking: licht bewolkt 2300 ft
EBOS 222350Z 17002KT 6000 FEW023 08/06 Q1024 BECMG 4000 BR

script ontwikkeld door  Saratoga-weather.org aangepast voor de template door  Weerstation Leuven